Thunder radar more information blitzortung!


Radar de pluja more information rain snow radar


Visita la nostra xarxa de llocs de meteo:

Template documentation
and downloads

And another site



No particular awareness of the weather is required.    There are no Weather-warnings

Pagina Historial Weather Underground text

Diari Resum Abril 2, 2016 Unitats:  Mètric    Imperial   Tant
« Previous Dia
SegĂźent Dia »
Diari Setmana Mensual Anual Personalitzada
  Maxima: Minima: Media:
Temperatura: -17.8 °C -13.1 °C -10.8 °C
Punt de rosada: -17.8 °C -16.3 °C -15.1 °C
Humitat: Humidity % 46 % 60 %
Wind Speed: 0 km/h 0 km/h 7.9 km/h
RĂ fegues de vent: 0 km/h - -
Vent:- - SSW
Pression baro: 0 hPa 34222.3 hPa -
Precipitacions: 0 mm    
Historical Graphs
 
 
Dades de taula per Abril 2, 2016
Temps Temperatura Punt de rosada Pression baro Vent Wind Speed RĂ fegues de vent Humitat Rainfall Rate (Hourly)
-17.8 °C -17.8 °C 0 hPa Calm     Humidity % 0 mm
00:00 -13.1 °C -14.8 °C 34256.2 hPa Calm   5.1 km/h 81 % 0 mm
00:10 -13.1 °C -14.8 °C 34256.2 hPa SW 2.6 km/h 5.1 km/h 81 % 0 mm
00:20 -13.1 °C -14.9 °C 34256.2 hPa Calm   5.1 km/h 80 % 0 mm
00:30 -13.1 °C -14.9 °C 34293.4 hPa Calm   5.1 km/h 80 % 0 mm
00:40 -13.1 °C -14.9 °C 34256.2 hPa SW 5.1 km/h 5.1 km/h 80 % 0 mm
00:50 -12.9 °C -14.8 °C 34256.2 hPa WSW 2.6 km/h 10.3 km/h 80 % 0 mm
01:00 -12.9 °C -14.8 °C 34256.2 hPa Calm   2.6 km/h 79 % 0 mm
01:10 -12.9 °C -14.9 °C 34256.2 hPa SW 2.6 km/h 2.6 km/h 78 % 0 mm
01:20 -12.9 °C -15 °C 34256.2 hPa SW 2.6 km/h 5.1 km/h 77 % 0 mm
01:30 -12.9 °C -15.1 °C 34256.2 hPa WSW 2.6 km/h 7.7 km/h 76 % 0 mm
01:40 -12.9 °C -15.3 °C 34256.2 hPa WSW 5.1 km/h 7.7 km/h 74 % 0 mm
01:50 -12.9 °C -15.4 °C 34256.2 hPa WSW 2.6 km/h 7.7 km/h 73 % 0 mm
02:00 -12.9 °C -15.6 °C 34256.2 hPa WSW 2.6 km/h 5.1 km/h 72 % 0 mm
02:10 -12.9 °C -15.6 °C 34256.2 hPa SW 2.6 km/h 5.1 km/h 72 % 0 mm
02:20 -13 °C -15.7 °C 34256.2 hPa SW 2.6 km/h 5.1 km/h 72 % 0 mm
02:30 -13.1 °C -15.9 °C 34256.2 hPa Calm   5.1 km/h 70 % 0 mm
02:40 -13.1 °C -16 °C 34293.4 hPa SW 2.6 km/h 5.1 km/h 70 % 0 mm
02:50 -13.1 °C -16 °C 34293.4 hPa WSW 2.6 km/h 5.1 km/h 70 % 0 mm
03:00 -13.1 °C -16.1 °C 34256.2 hPa WSW 5.1 km/h 5.1 km/h 69 % 0 mm
03:10 -13.1 °C -16.1 °C 34293.4 hPa Calm   5.1 km/h 69 % 0 mm
03:30 -12.9 °C -15.9 °C 34293.4 hPa SW 2.6 km/h 5.1 km/h 69 % 0 mm
03:50 -12.7 °C -15.7 °C 34293.4 hPa SSW 2.6 km/h 5.1 km/h 69 % 0 mm
04:00 -12.6 °C -15.7 °C 34327.3 hPa SSW 2.6 km/h 7.7 km/h 68 % 0 mm
04:10 -12.6 °C -15.8 °C 34327.3 hPa SW 2.6 km/h 7.7 km/h 67 % 0 mm
04:20 -12.5 °C -15.7 °C 34327.3 hPa WSW 5.1 km/h 5.1 km/h 67 % 0 mm
04:40 -12.4 °C -15.6 °C 34327.3 hPa SW 2.6 km/h 2.6 km/h 67 % 0 mm
04:50 -12.3 °C -15.6 °C 34327.3 hPa South 2.6 km/h   67 % 0 mm
05:00 -12.3 °C -15.5 °C 34327.3 hPa SSW 5.1 km/h 7.7 km/h 67 % 0 mm
05:10 -12.3 °C -15.7 °C 34327.3 hPa SW 5.1 km/h 7.7 km/h 66 % 0 mm
05:20 -12.2 °C -15.7 °C 34327.3 hPa WSW 7.7 km/h 7.7 km/h 65 % 0 mm
05:30 -12.1 °C -15.7 °C 34327.3 hPa WSW 5.1 km/h 12.9 km/h 64 % 0 mm
05:40 -12 °C -15.6 °C 34327.3 hPa WSW 7.7 km/h 10.3 km/h 64 % 0 mm
05:50 -12 °C -15.7 °C 34327.3 hPa WSW 5.1 km/h 10.3 km/h 63 % 0 mm
10:54 -11.9 °C -15.7 °C 34327.3 hPa West 10.3 km/h 10.3 km/h 63 % 0 mm
10:59 -11.9 °C -15.7 °C 34327.3 hPa SSW 9 km/h 9 km/h 63 % 0 mm
11:04 -11.9 °C -15.7 °C 34327.3 hPa WSW 11.9 km/h 11.9 km/h 63 % 0 mm
11:09 -11.9 °C -15.7 °C 34327.3 hPa WSW 9 km/h 9 km/h 63 % 0 mm
11:19 -11.8 °C -15.5 °C 34327.3 hPa WSW 9 km/h 9 km/h 63 % 0 mm
11:24 -11.7 °C -15.5 °C 34327.3 hPa SW 7.6 km/h 7.6 km/h 63 % 0 mm
11:29 -11.7 °C -15.4 °C 34327.3 hPa WSW 9 km/h 9 km/h 63 % 0 mm
11:34 -11.6 °C -15.4 °C 34327.3 hPa WSW 6 km/h 6 km/h 63 % 0 mm
11:44 -11.5 °C -15.3 °C 34327.3 hPa SW 9 km/h 9 km/h 63 % 0 mm
11:49 -11.5 °C -15.3 °C 34327.3 hPa SW 6 km/h 6 km/h 63 % 0 mm
11:54 -11.4 °C -15.2 °C 34327.3 hPa East 3.1 km/h   63 % 0 mm
11:59 -11.4 °C -15.2 °C 34327.3 hPa WSW 6 km/h 6 km/h 63 % 0 mm
12:04 -11.4 °C -15.2 °C 34327.3 hPa East 4.2 km/h 4.2 km/h 63 % 0 mm
12:09 -11.3 °C -15.1 °C 34327.3 hPa NNE 6 km/h 6 km/h 63 % 0 mm
12:14 -11.3 °C -15.2 °C 34327.3 hPa NE 6 km/h 6 km/h 62 % 0 mm
12:19 -11.3 °C -15.2 °C 34327.3 hPa West 6 km/h 6 km/h 62 % 0 mm
12:24 -11.2 °C -15.2 °C 34327.3 hPa WSW 6 km/h 6 km/h 62 % 0 mm
12:29 -11.1 °C -15.1 °C 34327.3 hPa WNW 6 km/h   62 % 0 mm
12:34 -11.2 °C -15.2 °C 34327.3 hPa WSW 9 km/h 9 km/h 62 % 0 mm
12:39 -11.2 °C -15.2 °C 34327.3 hPa SW 6 km/h 6 km/h 62 % 0 mm
12:44 -11.1 °C -15.1 °C 34327.3 hPa WNW 3.7 km/h 3.7 km/h 62 % 0 mm
12:49 -11 °C -14.9 °C 34327.3 hPa ENE 3.7 km/h 3.7 km/h 62 % 0 mm
12:59 -10.9 °C -14.9 °C 34327.3 hPa WSW 6 km/h 6 km/h 61 % 0 mm
13:04 -10.8 °C -14.7 °C 34327.3 hPa West 6 km/h 6 km/h 62 % 0 mm
13:09 -10.9 °C -15.1 °C 34327.3 hPa ESE 6 km/h 6 km/h 60 % 0 mm
13:14 -10.9 °C -15.1 °C 34327.3 hPa ESE 3.1 km/h 3.7 km/h 60 % 0 mm
13:19 -10.8 °C -14.8 °C 34327.3 hPa WSW 6.3 km/h 6.3 km/h 61 % 0 mm
13:24 -10.8 °C -14.9 °C 34327.3 hPa SW 9 km/h 9 km/h 61 % 0 mm
13:29 -10.8 °C -14.8 °C 34327.3 hPa WSW 9.8 km/h 9.8 km/h 61 % 0 mm
13:34 -10.7 °C -14.8 °C 34327.3 hPa SSW 6.8 km/h 6.8 km/h 61 % 0 mm
13:39 -10.6 °C -14.7 °C 34327.3 hPa WSW 6 km/h 6 km/h 61 % 0 mm
13:44 -10.6 °C -14.8 °C 34327.3 hPa WSW 9 km/h 9 km/h 60 % 0 mm
13:49 -10.6 °C -14.8 °C 34293.4 hPa WSW 6 km/h 6 km/h 60 % 0 mm
13:54 -10.6 °C -14.8 °C 34293.4 hPa WSW 11.9 km/h 11.9 km/h 60 % 0 mm
13:59 -10.6 °C -14.8 °C 34293.4 hPa SSW 9 km/h 9 km/h 60 % 0 mm
14:04 -10.5 °C -14.8 °C 34327.3 hPa SW 6 km/h 6 km/h 59 % 0 mm
14:09 -10.4 °C -14.8 °C 34327.3 hPa WNW 6 km/h 6 km/h 59 % 0 mm
14:14 -10.3 °C -14.7 °C 34327.3 hPa WSW 6 km/h 6 km/h 59 % 0 mm
14:19 -10.3 °C -14.7 °C 34327.3 hPa West 6 km/h 6 km/h 59 % 0 mm
14:24 -10.3 °C -14.7 °C 34327.3 hPa WSW 9.3 km/h 9.3 km/h 59 % 0 mm
14:29 -10.3 °C -14.8 °C 34327.3 hPa SSE 3.1 km/h   58 % 0 mm
14:34 -10.3 °C -14.9 °C 34327.3 hPa SSE 6 km/h 6 km/h 57 % 0 mm
14:39 -10.2 °C -14.7 °C 34327.3 hPa East 6.3 km/h   58 % 0 mm
14:44 -10.2 °C -14.8 °C 34327.3 hPa ESE 11.9 km/h 11.9 km/h 57 % 0 mm
14:49 -10.2 °C -14.8 °C 34327.3 hPa ENE 7.6 km/h 7.6 km/h 57 % 0 mm
14:54 -10.2 °C -14.8 °C 34327.3 hPa SSE 6 km/h 6.3 km/h 57 % 0 mm
14:59 -10.2 °C -14.8 °C 34327.3 hPa ENE 9.8 km/h 9.8 km/h 57 % 0 mm
15:04 -10.2 °C -14.7 °C 34327.3 hPa NE 5.6 km/h 5.6 km/h 58 % 0 mm
15:09 -10.1 °C -14.8 °C 34327.3 hPa NNE 6.3 km/h 6.3 km/h 57 % 0 mm
15:14 -10.2 °C -14.8 °C 34327.3 hPa East 6 km/h   57 % 0 mm
15:19 -10.1 °C -14.8 °C 34327.3 hPa ENE 9 km/h 9 km/h 57 % 0 mm
15:24 -10.2 °C -14.9 °C 34327.3 hPa NNE 6 km/h 6 km/h 57 % 0 mm
15:29 -10.2 °C -14.8 °C 34327.3 hPa ENE 6.3 km/h 6.3 km/h 57 % 0 mm
15:34 -10.1 °C -14.8 °C 34293.4 hPa East 6.8 km/h 6.8 km/h 57 % 0 mm
15:39 -10 °C -14.6 °C 34293.4 hPa East 6.8 km/h 6.8 km/h 58 % 0 mm
15:44 -10 °C -14.7 °C 34293.4 hPa East 6.8 km/h 6.8 km/h 57 % 0 mm
15:49 -10 °C -14.7 °C 34293.4 hPa ENE 11.9 km/h 11.9 km/h 57 % 0 mm
15:54 -9.9 °C -14.6 °C 34293.4 hPa NE 9 km/h 9 km/h 57 % 0 mm
15:59 -9.7 °C -14.4 °C 34293.4 hPa East 11.9 km/h 11.9 km/h 57 % 0 mm
16:04 -9.6 °C -14.3 °C 34256.2 hPa ENE 15 km/h 15 km/h 57 % 0 mm
16:09 -9.4 °C -14.1 °C 34256.2 hPa NNE 9 km/h 9 km/h 57 % 0 mm
16:14 -9.4 °C -14.2 °C 34256.2 hPa East 6 km/h 6 km/h 56 % 0 mm
16:19 -9.3 °C -14.2 °C 34256.2 hPa WNW 3.7 km/h 3.7 km/h 56 % 0 mm
16:24 -8.9 °C -13.7 °C 34256.2 hPa West 5.6 km/h 5.6 km/h 57 % 0 mm
16:29 -8.7 °C -13.6 °C 34256.2 hPa WSW 11.9 km/h 11.9 km/h 56 % 0 mm
16:34 -8.7 °C -13.8 °C 34222.3 hPa SSW 17.9 km/h 17.9 km/h 54 % 0 mm
16:39 -8.4 °C -13.7 °C 34222.3 hPa West 15 km/h 15 km/h 54 % 0 mm
16:44 -8.3 °C -13.7 °C 34222.3 hPa SSE 9.3 km/h 9.3 km/h 53 % 0 mm
16:49 -8 °C -13.4 °C 34256.2 hPa WNW 6 km/h 6 km/h 53 % 0 mm
16:54 -8.2 °C -13.7 °C 34256.2 hPa East 11.9 km/h 11.9 km/h 52 % 0 mm
16:59 -8.2 °C -13.7 °C 34256.2 hPa West 12.7 km/h 12.7 km/h 52 % 0 mm
17:04 -8.3 °C -13.8 °C 34256.2 hPa ESE 9 km/h 9 km/h 52 % 0 mm
17:09 -8.2 °C -13.7 °C 34256.2 hPa SSW 6 km/h 6 km/h 52 % 0 mm
17:14 -8.2 °C -13.8 °C 34256.2 hPa NE 9 km/h 9 km/h 51 % 0 mm
17:19 -7.9 °C -13.5 °C 34256.2 hPa SW 6 km/h 6 km/h 52 % 0 mm
17:24 -7.7 °C -13.4 °C 34256.2 hPa SW 11.9 km/h 11.9 km/h 51 % 0 mm
17:29 -7.9 °C -13.4 °C 34256.2 hPa SSW 6 km/h 6 km/h 52 % 0 mm
17:34 -7.8 °C -13.6 °C 34222.3 hPa NNE 11.9 km/h 11.9 km/h 51 % 0 mm
17:39 -7.9 °C -13.7 °C 34222.3 hPa WSW 11.9 km/h 11.9 km/h 51 % 0 mm
17:44 -7.6 °C -13.5 °C 34222.3 hPa SW 15 km/h 15 km/h 50 % 0 mm
17:49 -7.7 °C -13.6 °C 34256.2 hPa NE 3.1 km/h 3.1 km/h 50 % 0 mm
17:59 -7.2 °C -13.3 °C 34256.2 hPa SW 9.8 km/h 9.8 km/h 49 % 0 mm
18:04 -7.2 °C -13.4 °C 34256.2 hPa SW 9 km/h 9 km/h 48 % 0 mm
18:09 -7.1 °C -13.4 °C 34256.2 hPa SW 9 km/h 9 km/h 48 % 0 mm
18:14 -7.3 °C -13.6 °C 34256.2 hPa SW 15 km/h 15 km/h 48 % 0 mm
18:24 -7.6 °C -14.1 °C 34256.2 hPa SSW 17.9 km/h 17.9 km/h 46 % 0 mm
18:29 -7.7 °C -14.2 °C 34256.2 hPa SW 15 km/h 15 km/h 46 % 0 mm
18:34 -7.6 °C -14.2 °C 34256.2 hPa SW 11.9 km/h 11.9 km/h 46 % 0 mm
18:39 -7.8 °C -14.2 °C 34256.2 hPa SW 15 km/h 15 km/h 47 % 0 mm
18:44 -8 °C -14 °C 34256.2 hPa WSW 23.8 km/h 23.8 km/h 49 % 0 mm
18:49 -8.1 °C -14.1 °C 34256.2 hPa WSW 20.9 km/h 20.9 km/h 49 % 0 mm
18:54 -8.2 °C -14.1 °C 34256.2 hPa SSW 17.9 km/h 17.9 km/h 50 % 0 mm
18:59 -8.4 °C -14.1 °C 34256.2 hPa SSW 20.9 km/h 20.9 km/h 51 % 0 mm
19:04 -8.4 °C -14.1 °C 34256.2 hPa SW 15 km/h 15 km/h 51 % 0 mm
19:09 -8.5 °C -14 °C 34256.2 hPa SSW 14.5 km/h 14.5 km/h 52 % 0 mm
19:14 -8.8 °C -14.3 °C 34256.2 hPa SSW 23.8 km/h 23.8 km/h 52 % 0 mm
19:15 -12.2 °C -15.7 °C 34361.1 hPa WSW 7.7 km/h 10.3 km/h 65 % 0 mm
19:19 -8.9 °C -14.4 °C 34256.2 hPa SW 14.5 km/h 14.5 km/h 52 % 0 mm
19:24 -9 °C -14.5 °C 34256.2 hPa SW 16.1 km/h 16.1 km/h 52 % 0 mm
19:25 -12.2 °C -15.4 °C 34361.1 hPa WSW 7.7 km/h 10.3 km/h 67 % 0 mm
19:29 -9.1 °C -14.4 °C 34256.2 hPa SW 15.6 km/h 15.6 km/h 53 % 0 mm
19:34 -9.2 °C -14.5 °C 34256.2 hPa SSW 20.9 km/h 20.9 km/h 53 % 0 mm
19:35 -12.3 °C -15.5 °C 34361.1 hPa West 5.1 km/h 5.1 km/h 67 % 0 mm
19:39 -9.4 °C -14.7 °C 34256.2 hPa SW 15 km/h 15 km/h 53 % 0 mm
19:44 -9.5 °C -14.8 °C 34256.2 hPa SSW 11.9 km/h 11.9 km/h 53 % 0 mm
19:45 -12.3 °C -15.4 °C 34395 hPa West 5.1 km/h 15.6 km/h 68 % 0 mm
19:49 -9.6 °C -14.7 °C 34256.2 hPa SW 17.9 km/h 17.9 km/h 54 % 0 mm
19:55 -12.4 °C -15.6 °C 34361.1 hPa WSW 2.6 km/h 10.3 km/h 68 % 0 mm
19:59 -9.7 °C -14.8 °C 34256.2 hPa WNW 20.9 km/h 20.9 km/h 54 % 0 mm
20:04 -9.9 °C -15 °C 34256.2 hPa SSW 15 km/h 15 km/h 54 % 0 mm
20:05 -12.4 °C -15.6 °C 34361.1 hPa WSW 2.6 km/h 15.6 km/h 68 % 0 mm
20:09 -10 °C -15.1 °C 34256.2 hPa West 11.9 km/h 11.9 km/h 54 % 0 mm
20:14 -10.1 °C -15.2 °C 34256.2 hPa WSW 15 km/h 15 km/h 54 % 0 mm
20:15 -12.6 °C -15.6 °C 34361.1 hPa WSW 2.6 km/h 5.1 km/h 69 % 0 mm
20:20 -10.2 °C -15.2 °C 34293.4 hPa SW 7.7 km/h 15.6 km/h 54 % 0 mm
20:25 -10.3 °C -15.3 °C 34293.4 hPa SW 5.1 km/h 12.9 km/h 54 % 0 mm
20:30 -10.4 °C -15.3 °C 34293.4 hPa SW 9 km/h 9 km/h 55 % 0 mm
20:35 -10.4 °C -15.4 °C 34327.3 hPa SW 9 km/h 9 km/h 55 % 0 mm
20:40 -10.5 °C -15.4 °C 34327.3 hPa WSW 9 km/h 9 km/h 55 % 0 mm
20:45 -10.6 °C -15.4 °C 34327.3 hPa SW 11.9 km/h 11.9 km/h 55 % 0 mm
20:50 -10.6 °C -15.4 °C 34327.3 hPa SW 8.5 km/h 8.5 km/h 56 % 0 mm
20:55 -10.7 °C -15.4 °C 34327.3 hPa SW 9 km/h 9 km/h 56 % 0 mm
21:00 -10.8 °C -15.4 °C 34327.3 hPa WSW 9 km/h 9 km/h 57 % 0 mm
21:05 -10.8 °C -15.4 °C 34361.1 hPa SW 11.9 km/h 11.9 km/h 57 % 0 mm
21:10 -10.9 °C -15.5 °C 34361.1 hPa SW 9 km/h 9 km/h 57 % 0 mm
21:15 -10.9 °C -15.6 °C 34361.1 hPa SW 11.1 km/h 11.1 km/h 57 % 0 mm
21:20 -11.1 °C -15.5 °C 34293.4 hPa SW 11.9 km/h 11.9 km/h 58 % 0 mm
21:25 -11.1 °C -15.6 °C 34293.4 hPa West 9 km/h 9.3 km/h 58 % 0 mm
21:30 -11.2 °C -15.7 °C 34293.4 hPa WSW 9 km/h 9 km/h 58 % 0 mm
21:35 -11.3 °C -15.7 °C 34327.3 hPa WSW 5.1 km/h 10.3 km/h 58 % 0 mm
21:40 -11.3 °C -15.7 °C 34327.3 hPa WSW 11.9 km/h 11.9 km/h 58 % 0 mm
21:45 -11.3 °C -15.8 °C 34327.3 hPa WSW 2.6 km/h 7.7 km/h 58 % 0 mm
21:50 -11.4 °C -15.8 °C 34327.3 hPa WSW 6.3 km/h 6.3 km/h 58 % 0 mm
21:55 -11.4 °C -15.8 °C 34327.3 hPa WSW 2.6 km/h 10.3 km/h 58 % 0 mm
22:00 -11.4 °C -15.8 °C 34327.3 hPa WSW 2.6 km/h 7.7 km/h 58 % 0 mm
22:05 -11.4 °C -15.9 °C 34327.3 hPa Calm   7.7 km/h 58 % 0 mm
22:10 -11.5 °C -15.9 °C 34327.3 hPa WSW 2.6 km/h 7.7 km/h 58 % 0 mm
22:15 -11.5 °C -15.9 °C 34327.3 hPa Calm   5.1 km/h 58 % 0 mm
22:20 -11.6 °C -16.1 °C 34361.1 hPa West 2.6 km/h 5.1 km/h 57 % 0 mm
22:25 -11.6 °C -16.1 °C 34361.1 hPa WSW 5.1 km/h 7.7 km/h 57 % 0 mm
22:30 -11.6 °C -16.1 °C 34361.1 hPa WSW 5.1 km/h 10.3 km/h 57 % 0 mm
22:35 -11.6 °C -16.2 °C 34327.3 hPa WSW 5.1 km/h 7.7 km/h 57 % 0 mm
22:40 -11.6 °C -16.2 °C 34327.3 hPa WSW 5.1 km/h 10.3 km/h 57 % 0 mm
22:45 -11.7 °C -16.2 °C 34327.3 hPa WSW 7.7 km/h 12.9 km/h 57 % 0 mm
22:50 -11.7 °C -16.2 °C 34361.1 hPa WSW 11.9 km/h 11.9 km/h 58 % 0 mm
22:55 -12.6 °C -16 °C 34327.3 hPa Calm   5.1 km/h 65 % 0 mm
23:00 -11.8 °C -16.2 °C 34361.1 hPa WSW 9 km/h 9 km/h 58 % 0 mm
23:05 -11.8 °C -16.2 °C 34327.3 hPa WSW 9 km/h 9 km/h 58 % 0 mm
23:10 -11.8 °C -16.2 °C 34327.3 hPa SW 9 km/h 9 km/h 58 % 0 mm
23:15 -11.9 °C -16.3 °C 34327.3 hPa WSW 6.8 km/h 6.8 km/h 58 % 0 mm
23:20 -11.9 °C -16.2 °C 34361.1 hPa WSW 9.3 km/h 9.3 km/h 59 % 0 mm
23:25 -11.9 °C -16.2 °C 34361.1 hPa SW 7.6 km/h 7.6 km/h 59 % 0 mm
23:30 -12 °C -16.3 °C 34361.1 hPa WSW 8.5 km/h 8.5 km/h 59 % 0 mm
23:35 -12.1 °C -16.2 °C 34361.1 hPa SW 9.8 km/h 9.8 km/h 60 % 0 mm
23:40 -12.1 °C -16.2 °C 34361.1 hPa WSW 9 km/h 9 km/h 60 % 0 mm
23:45 -12.1 °C -16.1 °C 34361.1 hPa WSW 11.9 km/h 11.9 km/h 61 % 0 mm
23:50 -12.1 °C -16 °C 34361.1 hPa SW 17.9 km/h 17.9 km/h 62 % 0 mm
23:55 -12.2 °C -16 °C 34361.1 hPa WSW 11.9 km/h 11.9 km/h 62 % 0 mm
Meteo Sesrovires
Elogis d' Weather Underground - 2 mb

Guio original per  Jim McMurry - jmcmurry@mwt.net Adaptat per a la plantilla per  Wim van der Kuil - Leuven-Template.eu

Trobareu la nostra informacio del temps tambe a:

Weather Underground

AWEKAS